Time;durP1;ratioP1;P1;durP2;ratioP2;P2;SDS_P1;SDS_P2;PMS_P1;PMS_P2;Temp;Humidity;BMP_temperature;BMP_pressure;BME280_temperature;BME280_humidity;BME280_pressure;Samples;Min_cycle;Max_cycle;Signal;HPM_P1;HPM_P2
2022/05/27 00:01:21;;;;;;;0.30;0.25;;;;;;;14.70;100.00;99272.66;1786922;78;21098;-52
2022/05/27 00:03:49;;;;;;;2.30;0.37;;;;;;;14.74;100.00;99262.45;1791113;78;20933;-51
2022/05/27 00:06:15;;;;;;;1.37;0.30;;;;;;;14.78;100.00;99253.13;1788154;78;20863;-51
2022/05/27 00:08:42;;;;;;;3.87;0.30;;;;;;;14.82;100.00;99249.69;1785114;78;21467;-50
2022/05/27 00:11:08;;;;;;;1.82;0.30;;;;;;;14.86;100.00;99263.40;1789765;78;20899;-51
2022/05/27 00:13:35;;;;;;;0.93;0.30;;;;;;;14.87;100.00;99274.13;1779436;79;21196;-51
2022/05/27 00:16:01;;;;;;;0.60;0.40;;;;;;;14.90;100.00;99273.02;1780309;79;22276;-51
2022/05/27 00:18:27;;;;;;;1.35;0.40;;;;;;;14.93;100.00;99268.25;1781092;78;21045;-50
2022/05/27 00:20:55;;;;;;;2.87;0.40;;;;;;;14.93;100.00;99264.19;1784374;79;21491;-50
2022/05/27 00:23:21;;;;;;;0.50;0.37;;;;;;;14.94;100.00;99259.15;1738712;79;20914;-49
2022/05/27 00:25:48;;;;;;;1.47;0.33;;;;;;;14.96;100.00;99268.04;1781437;79;21784;-49
2022/05/27 00:28:14;;;;;;;0.60;0.30;;;;;;;14.97;100.00;99267.03;1787495;79;20946;-51
2022/05/27 00:30:41;;;;;;;1.77;0.30;;;;;;;14.97;100.00;99262.97;1787374;79;20914;-50
2022/05/27 00:33:08;;;;;;;0.98;0.45;;;;;;;15.01;100.00;99278.53;1782501;78;21843;-51
2022/05/27 00:35:36;;;;;;;0.78;0.33;;;;;;;15.04;100.00;99275.59;1779479;79;21022;-50
2022/05/27 00:38:02;;;;;;;1.17;0.40;;;;;;;15.08;100.00;99279.31;1783013;79;22868;-51
2022/05/27 00:40:39;;;;;;;0.60;0.30;;;;;;;15.13;100.00;99271.72;1784329;79;21111;-49
2022/05/27 00:43:06;;;;;;;0.60;0.30;;;;;;;15.17;100.00;99285.89;1782775;79;21097;-49
2022/05/27 00:45:34;;;;;;;0.95;0.30;;;;;;;15.21;100.00;99291.48;1782822;78;21365;-51
2022/05/27 00:48:02;;;;;;;0.57;0.30;;;;;;;15.24;100.00;99286.30;1809511;77;21045;-49
2022/05/27 00:50:32;;;;;;;2.17;0.30;;;;;;;15.24;100.00;99286.30;1808046;77;21140;-51
2022/05/27 00:52:59;;;;;;;3.12;1.30;;;;;;;15.24;100.00;99287.65;1780426;78;21065;-49
2022/05/27 00:55:30;;;;;;;2.05;0.30;;;;;;;15.22;100.00;99286.44;1810681;77;21060;-52
2022/05/27 00:58:07;;;;;;;0.62;0.33;;;;;;;15.21;100.00;99288.77;1782268;78;21053;-50
2022/05/27 01:00:33;;;;;;;2.75;0.30;;;;;;;15.20;100.00;99309.21;1779708;78;21068;-49
2022/05/27 01:02:59;;;;;;;0.72;0.30;;;;;;;15.19;100.00;99303.41;1809547;77;22944;-51
2022/05/27 01:05:26;;;;;;;1.10;0.30;;;;;;;15.17;100.00;99300.80;1812797;77;21441;-48
2022/05/27 01:07:56;;;;;;;3.55;0.30;;;;;;;15.15;100.00;99301.41;1798929;77;21148;-50
2022/05/27 01:10:23;;;;;;;0.37;0.30;;;;;;;15.12;100.00;99295.73;1794757;77;21057;-50
2022/05/27 01:13:46;;;;;;;1.05;0.30;;;;;;;15.09;100.00;99301.38;1798613;77;21074;-49
2022/05/27 01:16:21;;;;;;;1.35;0.23;;;;;;;15.07;100.00;99304.68;1786431;79;21155;-51
2022/05/27 01:22:21;;;;;;;0.35;0.25;;;;;;;15.01;100.00;99310.56;1801304;77;21033;-49
2022/05/27 01:25:46;;;;;;;0.37;0.30;;;;;;;15.01;100.00;99312.41;1810188;77;21088;-48
2022/05/27 01:28:24;;;;;;;0.45;0.30;;;;;;;15.03;100.00;99310.45;1804702;77;21147;-49
2022/05/27 01:31:29;;;;;;;0.40;0.25;;;;;;;15.05;100.00;99309.38;1804449;78;21152;-47
2022/05/27 01:34:03;;;;;;;0.40;0.23;;;;;;;15.07;100.00;99308.75;1809893;77;21060;-47
2022/05/27 01:37:12;;;;;;;0.85;0.37;;;;;;;15.07;100.00;99300.62;1788391;77;21516;-47
2022/05/27 01:39:59;;;;;;;1.17;0.50;;;;;;;15.06;100.00;99299.37;1775017;77;21083;-48
2022/05/27 01:43:18;;;;;;;1.47;0.30;;;;;;;15.02;100.00;99306.01;1806504;77;21017;-51
2022/05/27 01:45:59;;;;;;;0.40;0.20;;;;;;;14.99;100.00;99304.38;1802984;77;21140;-51
2022/05/27 01:48:46;;;;;;;1.12;0.20;;;;;;;14.95;100.00;99296.60;1800671;78;21246;-50
2022/05/27 01:51:19;;;;;;;0.47;0.30;;;;;;;14.92;100.00;99295.46;1783061;77;20875;-50
2022/05/27 01:54:00;;;;;;;6.90;0.53;;;;;;;14.87;100.00;99291.75;1803106;77;21052;-51
2022/05/27 01:56:37;;;;;;;0.40;0.30;;;;;;;14.83;100.00;99302.41;1811900;78;22269;-50
2022/05/27 01:59:13;;;;;;;0.33;0.25;;;;;;;14.79;100.00;99302.77;1811468;77;22261;-50
2022/05/27 02:01:44;;;;;;;2.58;0.30;;;;;;;14.74;100.00;99309.37;1784968;78;21051;-50
2022/05/27 02:04:24;;;;;;;0.30;0.20;;;;;;;14.73;100.00;99311.70;1751501;80;20972;-49
2022/05/27 02:07:08;;;;;;;0.50;0.20;;;;;;;14.73;100.00;99317.11;1787481;78;21107;-50
2022/05/27 02:09:40;;;;;;;0.57;0.28;;;;;;;14.75;100.00;99308.88;1803517;77;21637;-50
2022/05/27 02:12:11;;;;;;;1.95;0.30;;;;;;;14.78;100.00;99315.93;1787608;78;21524;-50
2022/05/27 02:14:47;;;;;;;4.20;0.30;;;;;;;14.80;100.00;99320.23;1773237;79;21287;-50
2022/05/27 02:17:27;;;;;;;0.60;0.20;;;;;;;14.81;100.00;99324.69;1805546;77;20847;-50
2022/05/27 02:20:01;;;;;;;0.40;0.20;;;;;;;14.84;100.00;99324.47;1783344;78;20902;-51
2022/05/27 02:22:34;;;;;;;5.10;0.30;;;;;;;14.84;100.00;99329.02;1807652;77;21044;-50
2022/05/27 02:25:04;;;;;;;;;;;;;;;14.83;100.00;99330.00;1755116;78;21120;-50
2022/05/27 02:28:04;;;;;;;1.50;0.30;;;;;;;14.81;100.00;99328.75;1786118;78;20774;-49
2022/05/27 02:30:30;;;;;;;0.42;0.23;;;;;;;14.76;100.00;99344.48;1787905;78;21088;-50
2022/05/27 02:35:48;;;;;;;0.90;0.30;;;;;;;14.69;100.00;99346.77;1787340;78;21052;-50
2022/05/27 02:38:14;;;;;;;0.45;0.28;;;;;;;14.66;100.00;99351.53;1788523;79;21616;-50
2022/05/27 02:40:58;;;;;;;3.72;0.28;;;;;;;14.63;100.00;99344.48;1809508;77;21045;-50
2022/05/27 02:43:58;;;;;;;1.47;0.45;;;;;;;14.64;100.00;99356.18;1811633;77;21088;-50
2022/05/27 02:46:57;;;;;;;2.52;0.30;;;;;;;14.65;100.00;99349.79;1779533;78;21398;-50
2022/05/27 02:49:51;;;;;;;0.80;0.30;;;;;;;14.67;100.00;99355.97;1807072;77;21539;-50
2022/05/27 02:52:41;;;;;;;0.82;0.30;;;;;;;14.68;100.00;99353.16;1797503;77;22604;-50
2022/05/27 02:55:30;;;;;;;0.42;0.30;;;;;;;14.75;100.00;99344.10;1801269;77;21382;-50
2022/05/27 02:57:58;;;;;;;1.02;0.40;;;;;;;14.75;100.00;99344.10;1761371;80;21088;-50
2022/05/27 03:00:28;;;;;;;3.40;0.30;;;;;;;14.79;100.00;99350.18;1795695;77;21958;-50
2022/05/27 03:02:59;;;;;;;4.47;0.30;;;;;;;14.81;100.00;99350.42;1778895;78;20875;-50
2022/05/27 03:05:26;;;;;;;0.33;0.30;;;;;;;14.81;100.00;99350.42;1771391;79;22162;-50
2022/05/27 03:08:39;;;;;;;0.80;0.20;;;;;;;14.83;100.00;99354.38;1790500;79;21020;-50
2022/05/27 03:11:36;;;;;;;0.50;0.30;;;;;;;14.83;100.00;99353.90;1786877;78;21104;-50
2022/05/27 03:14:31;;;;;;;3.15;0.20;;;;;;;14.84;100.00;99362.89;1790792;78;21130;-50
2022/05/27 03:17:21;;;;;;;0.70;0.20;;;;;;;14.85;100.00;99368.70;1786089;79;22476;-52
2022/05/27 03:20:28;;;;;;;0.37;0.20;;;;;;;14.86;100.00;99365.02;1790084;78;21892;-52
2022/05/27 03:23:31;;;;;;;1.70;0.30;;;;;;;14.87;100.00;99369.45;1792999;78;20981;-50
2022/05/27 03:26:08;;;;;;;1.75;0.30;;;;;;;14.90;100.00;99371.44;1788111;79;21065;-52
2022/05/27 03:28:42;;;;;;;0.60;0.20;;;;;;;14.94;100.00;99381.59;1744380;78;21556;-50
2022/05/27 03:31:14;;;;;;;1.00;0.30;;;;;;;14.97;100.00;99382.73;1790390;78;21686;-51
2022/05/27 03:33:58;;;;;;;1.90;0.30;;;;;;;14.99;100.00;99382.11;1779711;79;21794;-50
2022/05/27 03:36:36;;;;;;;2.65;0.30;;;;;;;15.01;100.00;99388.30;1781295;78;20906;-52
2022/05/27 03:39:16;;;;;;;0.45;0.25;;;;;;;15.01;100.00;99391.00;1775148;78;21050;-51
2022/05/27 03:41:51;;;;;;;0.20;0.20;;;;;;;15.00;100.00;99387.42;1808918;77;21031;-49
2022/05/27 03:44:20;;;;;;;0.53;0.25;;;;;;;15.00;100.00;99383.84;1780272;78;21041;-49
2022/05/27 03:46:50;;;;;;;1.00;0.30;;;;;;;14.98;100.00;99374.95;1806187;77;21164;-48
2022/05/27 03:49:18;;;;;;;1.67;0.20;;;;;;;14.96;100.00;99379.16;1812139;77;20991;-47
2022/05/27 03:52:08;;;;;;;0.37;0.13;;;;;;;14.99;100.00;99369.91;1806917;78;21048;-50
2022/05/27 03:54:34;;;;;;;0.70;0.23;;;;;;;15.00;100.00;99371.65;1777450;78;21108;-49
2022/05/27 03:57:00;;;;;;;3.60;0.20;;;;;;;15.02;100.00;99366.99;1811750;77;21031;-48
2022/05/27 03:59:27;;;;;;;2.37;0.25;;;;;;;15.05;100.00;99370.36;1807691;77;21150;-48
2022/05/27 04:01:55;;;;;;;0.40;0.28;;;;;;;15.08;100.00;99369.25;1783170;78;20998;-48
2022/05/27 04:04:25;;;;;;;0.95;0.23;;;;;;;15.11;100.00;99364.97;1784395;78;21105;-48
2022/05/27 04:06:52;;;;;;;0.60;0.30;;;;;;;15.15;100.00;99373.23;1808225;77;21001;-47
2022/05/27 04:09:19;;;;;;;16.97;0.30;;;;;;;15.17;100.00;99374.48;1800495;78;21444;-47
2022/05/27 04:11:46;;;;;;;2.55;0.30;;;;;;;15.20;100.00;99376.98;1809507;78;22241;-50
2022/05/27 04:14:12;;;;;;;0.30;0.20;;;;;;;15.20;100.00;99376.98;1804046;77;21091;-48
2022/05/27 04:16:39;;;;;;;2.55;0.20;;;;;;;15.22;100.00;99377.75;1809447;77;21041;-46
2022/05/27 04:19:05;;;;;;;0.37;0.20;;;;;;;15.23;100.00;99381.68;1808269;78;21030;-48
2022/05/27 04:21:33;;;;;;;2.52;0.40;;;;;;;15.23;100.00;99381.68;1805194;78;21021;-49
2022/05/27 04:24:00;;;;;;;0.45;0.20;;;;;;;15.26;100.00;99390.09;1808746;77;21934;-48
2022/05/27 04:26:26;;;;;;;0.65;0.20;;;;;;;15.26;100.00;99390.09;1805407;77;21017;-48
2022/05/27 04:28:53;;;;;;;0.78;0.20;;;;;;;15.30;100.00;99390.26;1807939;78;21025;-47
2022/05/27 04:31:20;;;;;;;1.22;0.30;;;;;;;15.33;100.00;99379.16;1809288;77;21043;-49
2022/05/27 04:33:48;;;;;;;0.33;0.30;;;;;;;15.34;100.00;99382.25;1806653;77;21045;-48
2022/05/27 04:36:15;;;;;;;0.82;0.20;;;;;;;15.40;100.00;99389.93;1806168;78;22270;-47
2022/05/27 04:38:43;;;;;;;3.65;0.20;;;;;;;15.45;100.00;99393.19;1777228;79;21621;-48
2022/05/27 04:41:09;;;;;;;0.40;0.20;;;;;;;15.49;100.00;99390.61;1782460;78;21093;-47
2022/05/27 04:43:37;;;;;;;0.98;0.20;;;;;;;15.54;100.00;99385.77;1781230;79;22165;-50
2022/05/27 04:46:04;;;;;;;1.45;0.10;;;;;;;15.61;100.00;99386.16;1776344;79;21232;-50
2022/05/27 04:48:30;;;;;;;0.33;0.20;;;;;;;15.61;100.00;99386.16;1778929;78;22507;-50
2022/05/27 04:50:58;;;;;;;5.20;0.20;;;;;;;15.64;100.00;99373.73;1777159;78;21098;-46
2022/05/27 04:53:25;;;;;;;0.85;0.20;;;;;;;15.68;100.00;99384.72;1776166;79;21138;-50
2022/05/27 04:55:52;;;;;;;0.30;0.20;;;;;;;15.76;100.00;99380.45;1807792;78;21028;-49
2022/05/27 04:58:18;;;;;;;1.72;0.10;;;;;;;15.76;100.00;99380.45;1796467;77;21058;-49
2022/05/27 05:00:46;;;;;;;0.30;0.10;;;;;;;15.84;100.00;99378.52;1781903;78;21118;-47
2022/05/27 05:03:13;;;;;;;1.45;0.42;;;;;;;15.89;100.00;99376.34;1786343;79;21088;-49
2022/05/27 05:05:39;;;;;;;1.07;0.10;;;;;;;15.93;100.00;99382.38;1778868;79;21391;-48
2022/05/27 05:08:24;;;;;;;0.82;0.20;;;;;;;15.93;100.00;99383.25;1786151;78;21013;-50
2022/05/27 05:10:51;;;;;;;0.75;0.20;;;;;;;15.94;100.00;99376.84;1778657;79;21029;-48
2022/05/27 05:13:17;;;;;;;0.20;0.17;;;;;;;15.97;100.00;99382.05;1780158;79;21813;-49
2022/05/27 05:15:43;;;;;;;0.93;0.20;;;;;;;15.99;100.00;99390.08;1782444;78;21519;-49
2022/05/27 05:18:11;;;;;;;0.40;0.20;;;;;;;16.00;100.00;99389.06;1782813;78;21078;-50
2022/05/27 05:20:39;;;;;;;1.90;0.20;;;;;;;16.01;100.00;99386.24;1785603;78;21041;-48
2022/05/27 05:23:05;;;;;;;0.50;0.20;;;;;;;16.03;100.00;99385.64;1778761;79;21068;-48
2022/05/27 05:25:33;;;;;;;0.95;0.20;;;;;;;16.06;100.00;99384.55;1783548;78;21142;-47
2022/05/27 05:28:04;;;;;;;1.17;0.15;;;;;;;16.07;100.00;99383.57;1783258;78;21037;-47
2022/05/27 05:30:30;;;;;;;0.78;0.10;;;;;;;16.08;100.00;99383.42;1783559;79;21100;-48
2022/05/27 05:32:57;;;;;;;0.30;0.10;;;;;;;16.09;100.00;99389.73;1781342;78;21135;-47
2022/05/27 05:35:23;;;;;;;0.50;0.20;;;;;;;16.11;100.00;99379.62;1784620;78;21789;-48
2022/05/27 05:37:50;;;;;;;0.30;0.20;;;;;;;16.11;100.00;99375.06;1780140;78;21130;-50
2022/05/27 05:40:16;;;;;;;1.30;0.20;;;;;;;16.14;100.00;99376.19;1780508;78;22332;-45
2022/05/27 05:42:46;;;;;;;2.08;0.20;;;;;;;16.19;100.00;99377.18;1782006;78;21080;-44
2022/05/27 05:45:14;;;;;;;1.17;0.20;;;;;;;16.25;100.00;99378.92;1782731;78;21581;-48
2022/05/27 05:47:43;;;;;;;0.70;0.10;;;;;;;16.31;100.00;99384.88;1784155;78;20882;-47
2022/05/27 05:50:12;;;;;;;1.45;0.28;;;;;;;16.36;100.00;99382.66;1786498;78;20870;-49
2022/05/27 05:52:39;;;;;;;0.90;0.20;;;;;;;16.36;100.00;99375.87;1782136;78;20953;-47
2022/05/27 05:55:07;;;;;;;0.90;0.17;;;;;;;16.37;100.00;99381.19;1785649;78;21025;-47
2022/05/27 05:58:51;;;;;;;3.13;0.10;;;;;;;16.43;100.00;99387.50;1829043;75;26755;-48
2022/05/27 06:01:18;;;;;;;0.40;0.17;;;;;;;16.40;100.00;99382.33;1829279;76;20950;-48
2022/05/27 06:03:44;;;;;;;0.78;0.20;;;;;;;16.42;100.00;99378.97;1829130;76;21228;-46
2022/05/27 06:06:12;;;;;;;0.30;0.20;;;;;;;16.44;100.00;99372.93;1833541;76;20974;-48
2022/05/27 06:08:39;;;;;;;1.15;0.20;;;;;;;16.48;100.00;99378.52;1827939;76;20966;-47
2022/05/27 06:11:07;;;;;;;0.50;0.10;;;;;;;16.54;100.00;99367.64;1829802;76;20932;-46
2022/05/27 06:13:40;;;;;;;1.02;0.20;;;;;;;16.59;100.00;99363.57;1831771;76;20861;-49
2022/05/27 06:16:07;;;;;;;1.92;0.20;;;;;;;16.64;100.00;99366.84;1794752;78;21434;-50
2022/05/27 06:18:34;;;;;;;0.37;0.20;;;;;;;16.71;100.00;99365.85;1768965;79;20934;-47
2022/05/27 06:21:00;;;;;;;1.35;0.20;;;;;;;16.78;100.00;99356.71;1767011;80;20891;-49
2022/05/27 06:23:29;;;;;;;1.45;0.20;;;;;;;16.84;100.00;99357.60;1794488;78;21623;-49
2022/05/27 06:26:03;;;;;;;2.40;0.20;;;;;;;16.92;100.00;99359.21;1767788;79;20916;-47
2022/05/27 06:36:45;;;;;;;0.72;0.30;;;;;;;17.13;100.00;99347.94;1762554;79;21536;-47
2022/05/27 06:39:11;;;;;;;0.35;0.15;;;;;;;17.20;100.00;99343.72;1763502;80;21045;-47
2022/05/27 06:41:39;;;;;;;1.37;0.20;;;;;;;17.28;100.00;99338.52;1793766;78;21140;-48
2022/05/27 06:44:06;;;;;;;1.60;0.20;;;;;;;17.39;100.00;99337.14;1790374;78;21092;-47
2022/05/27 06:46:33;;;;;;;0.25;0.10;;;;;;;17.50;100.00;99335.39;1769876;79;21003;-49
2022/05/27 06:48:59;;;;;;;0.90;0.20;;;;;;;17.60;100.00;99335.88;1800794;78;21294;-47
2022/05/27 06:51:26;;;;;;;1.47;0.20;;;;;;;17.70;100.00;99340.92;1755870;80;20999;-48
2022/05/27 06:53:52;;;;;;;0.40;0.20;;;;;;;17.76;100.00;99335.48;1796218;78;21472;-47
2022/05/27 06:56:18;;;;;;;0.68;0.20;;;;;;;17.81;100.00;99331.86;1778116;79;21104;-48
2022/05/27 06:58:45;;;;;;;0.30;0.20;;;;;;;17.84;100.00;99323.44;1768226;79;21052;-50
2022/05/27 07:01:12;;;;;;;0.65;0.25;;;;;;;17.89;100.00;99319.81;1773692;80;21021;-47
2022/05/27 07:03:39;;;;;;;1.00;0.20;;;;;;;17.92;100.00;99327.73;1768777;80;21108;-49
2022/05/27 07:06:10;;;;;;;0.90;0.28;;;;;;;17.93;100.00;99320.44;1772902;80;21072;-46
2022/05/27 07:08:36;;;;;;;0.82;0.20;;;;;;;17.94;100.00;99318.95;1773414;79;21446;-48
2022/05/27 07:11:03;;;;;;;1.25;0.15;;;;;;;17.97;100.00;99323.25;1775781;80;21359;-49
2022/05/27 07:13:31;;;;;;;0.65;0.10;;;;;;;17.98;100.00;99314.95;1746032;80;21112;-48
2022/05/27 07:15:57;;;;;;;2.08;0.10;;;;;;;18.00;100.00;99318.41;1751224;81;21460;-47
2022/05/27 07:18:24;;;;;;;1.55;0.15;;;;;;;18.01;100.00;99318.78;1762638;79;21198;-48
2022/05/27 07:20:50;;;;;;;0.35;0.10;;;;;;;18.01;100.00;99317.42;1782700;78;21063;-50
2022/05/27 07:23:18;;;;;;;0.20;0.10;;;;;;;17.98;100.00;99313.59;1743947;80;21328;-48
2022/05/27 07:25:45;;;;;;;0.45;0.10;;;;;;;17.93;100.00;99304.96;1746330;81;22235;-47
2022/05/27 07:28:12;;;;;;;2.12;0.42;;;;;;;17.92;100.00;99301.00;1747334;80;21554;-50
2022/05/27 07:30:39;;;;;;;1.45;0.25;;;;;;;17.96;100.00;99288.84;1777155;78;21349;-48
2022/05/27 07:33:06;;;;;;;4.90;1.05;;;;;;;18.05;100.00;99281.23;1770789;78;22515;-49
2022/05/27 07:35:33;;;;;;;0.60;0.28;;;;;;;18.14;100.00;99289.48;1755599;81;21026;-48
2022/05/27 07:38:00;;;;;;;0.72;0.20;;;;;;;18.19;100.00;99289.10;1756738;79;22287;-48
2022/05/27 07:40:27;;;;;;;0.37;0.20;;;;;;;18.24;100.00;99292.77;1775549;78;21032;-51
2022/05/27 07:42:53;;;;;;;0.53;0.10;;;;;;;18.27;100.00;99287.07;1752086;80;21537;-48
2022/05/27 07:45:26;;;;;;;0.33;0.15;;;;;;;18.34;100.00;99292.34;1749156;80;21124;-50
2022/05/27 07:47:48;;;;;;;1.02;0.20;;;;;;;18.45;100.00;99284.09;1743640;80;21571;-48
2022/05/27 07:50:14;;;;;;;1.92;0.30;;;;;;;18.54;100.00;99290.11;1769647;79;21402;-48
2022/05/27 07:52:42;;;;;;;0.70;0.30;;;;;;;18.59;100.00;99293.80;1777297;78;21482;-49
2022/05/27 07:55:09;;;;;;;0.53;0.20;;;;;;;18.67;100.00;99294.86;1778673;78;21107;-47
2022/05/27 07:57:44;;;;;;;0.85;0.30;;;;;;;18.78;100.00;99289.82;1776330;78;21039;-48
2022/05/27 08:00:15;;;;;;;0.33;0.10;;;;;;;18.90;100.00;99285.97;1788826;78;21205;-51
2022/05/27 08:02:42;;;;;;;0.53;0.20;;;;;;;19.02;100.00;99282.66;1776905;79;21131;-51
2022/05/27 08:05:16;;;;;;;1.42;0.25;;;;;;;19.14;100.00;99284.28;1794414;78;21462;-49
2022/05/27 08:07:43;;;;;;;0.40;0.20;;;;;;;19.22;100.00;99282.55;1789691;78;21102;-48
2022/05/27 08:10:10;;;;;;;0.95;0.33;;;;;;;19.26;100.00;99276.33;1763648;80;20930;-51
2022/05/27 08:12:37;;;;;;;0.40;0.20;;;;;;;19.27;100.00;99282.16;1767514;80;21906;-51
2022/05/27 08:15:05;;;;;;;1.02;0.20;;;;;;;19.30;100.00;99273.70;1794592;78;20926;-50
2022/05/27 08:17:31;;;;;;;1.12;0.20;;;;;;;19.37;100.00;99272.13;1767858;79;21397;-49
2022/05/27 08:19:58;;;;;;;0.70;0.10;;;;;;;19.45;100.00;99265.45;1757707;80;21124;-47
2022/05/27 08:22:25;;;;;;;0.82;0.20;;;;;;;19.54;100.00;99261.91;1794611;78;21021;-47
2022/05/27 08:24:52;;;;;;;0.68;0.10;;;;;;;19.62;100.00;99255.73;1761813;79;20962;-51
2022/05/27 08:27:18;;;;;;;4.83;0.95;;;;;;;19.74;100.00;99267.36;1794965;78;20921;-50
2022/05/27 08:29:44;;;;;;;2.25;0.30;;;;;;;19.88;100.00;99264.21;1773098;79;20958;-49
2022/05/27 08:32:11;;;;;;;1.77;0.20;;;;;;;20.01;100.00;99254.70;1763409;80;21533;-48
2022/05/27 08:40:21;;;;;;;4.28;0.30;;;;;;;20.34;100.00;99246.54;1777489;79;20941;-48
2022/05/27 08:43:18;;;;;;;3.30;0.17;;;;;;;20.46;100.00;99255.94;1764590;80;22074;-51
2022/05/27 08:45:56;;;;;;;1.65;0.25;;;;;;;20.55;100.00;99248.22;1766879;80;21097;-48
2022/05/27 08:48:23;;;;;;;0.30;0.20;;;;;;;20.65;100.00;99254.52;1776982;79;21001;-48
2022/05/27 08:50:53;;;;;;;1.55;0.28;;;;;;;20.64;100.00;99251.42;1767026;79;21073;-48
2022/05/27 08:53:31;;;;;;;1.22;0.20;;;;;;;20.60;100.00;99242.64;1761796;80;20962;-48
2022/05/27 08:59:27;;;;;;;0.60;0.20;;;;;;;20.51;100.00;99251.74;1771425;79;21200;-47
2022/05/27 09:02:35;;;;;;;1.30;0.20;;;;;;;20.58;100.00;99247.42;1758650;80;21030;-48
2022/05/27 09:05:44;;;;;;;2.47;0.20;;;;;;;20.72;100.00;99253.77;1769867;79;21064;-49
2022/05/27 09:08:19;;;;;;;0.47;0.23;;;;;;;20.87;100.00;99238.22;1777791;79;21049;-50
2022/05/27 09:11:22;;;;;;;0.95;0.10;;;;;;;21.04;100.00;99249.72;1772894;79;20914;-50
2022/05/27 09:14:09;;;;;;;2.35;0.25;;;;;;;21.13;100.00;99247.44;1774265;79;21139;-50
2022/05/27 09:16:59;;;;;;;2.02;0.20;;;;;;;21.20;100.00;99231.29;1770148;80;20858;-48
2022/05/27 09:19:31;;;;;;;1.55;0.20;;;;;;;21.27;100.00;99241.47;1767282;79;20902;-48
2022/05/27 09:22:09;;;;;;;0.20;0.20;;;;;;;21.34;100.00;99250.81;1787729;78;21607;-46
2022/05/27 09:25:07;;;;;;;0.40;0.20;;;;;;;21.36;100.00;99242.41;1796039;78;21002;-45
2022/05/27 09:28:04;;;;;;;0.60;0.20;;;;;;;21.32;100.00;99234.17;1796922;78;21033;-47
2022/05/27 09:30:32;;;;;;;0.50;0.30;;;;;;;21.23;100.00;99238.70;1798446;78;21086;-48
2022/05/27 09:33:09;;;;;;;0.62;0.20;;;;;;;21.09;100.00;99239.20;1763914;80;21579;-47
2022/05/27 09:35:58;;;;;;;1.98;0.20;;;;;;;21.00;100.00;99231.39;1773975;79;21045;-46
2022/05/27 09:38:27;;;;;;;0.20;0.20;;;;;;;20.96;100.00;99234.06;1757426;80;21591;-47
2022/05/27 09:40:56;;;;;;;1.12;0.20;;;;;;;20.94;100.00;99225.14;1774599;79;21704;-48
2022/05/27 09:43:44;;;;;;;0.50;0.20;;;;;;;20.96;100.00;99231.33;1771413;78;22015;-49
2022/05/27 09:46:15;;;;;;;0.37;0.20;;;;;;;21.01;100.00;99207.09;1776908;79;21044;-50
2022/05/27 09:48:42;;;;;;;0.30;0.20;;;;;;;21.04;100.00;99220.48;1776811;79;21017;-48
2022/05/27 09:51:09;;;;;;;0.57;0.20;;;;;;;21.07;100.00;99217.45;1775636;80;21072;-49
2022/05/27 09:53:49;;;;;;;0.72;0.28;;;;;;;21.09;100.00;99216.80;1774895;79;21136;-49
2022/05/27 09:56:17;;;;;;;0.55;0.25;;;;;;;21.13;100.00;99209.13;1778241;79;21064;-48
2022/05/27 09:58:45;;;;;;;0.75;0.30;;;;;;;21.18;100.00;99216.92;1762257;80;21394;-50
2022/05/27 10:01:27;;;;;;;0.20;0.20;;;;;;;21.24;100.00;99210.31;1772018;79;21016;-49
2022/05/27 10:04:06;;;;;;;0.88;0.20;;;;;;;21.35;100.00;99207.87;1753911;80;21094;-48
2022/05/27 10:06:35;;;;;;;3.00;0.35;;;;;;;21.46;100.00;99188.45;1776982;79;20981;-49
2022/05/27 10:09:13;;;;;;;0.30;0.20;;;;;;;21.48;100.00;99192.77;1760941;80;21049;-50
2022/05/27 10:11:53;;;;;;;1.77;0.20;;;;;;;21.53;100.00;99192.28;1766980;79;21132;-47
2022/05/27 10:14:29;;;;;;;0.82;0.30;;;;;;;21.56;100.00;99181.53;1763213;80;21044;-48
2022/05/27 10:17:13;;;;;;;1.30;0.20;;;;;;;21.64;100.00;99185.20;1764290;80;21101;-49
2022/05/27 10:19:45;;;;;;;0.60;0.23;;;;;;;21.71;100.00;99167.11;1761730;80;21609;-53
2022/05/27 10:22:27;;;;;;;1.45;0.20;;;;;;;21.77;100.00;99177.46;1791576;77;21025;-53
2022/05/27 10:25:04;;;;;;;0.60;0.10;;;;;;;21.80;100.00;99174.38;1761197;80;21065;-54
2022/05/27 10:27:51;;;;;;;0.78;0.20;;;;;;;21.89;100.00;99169.83;1795011;78;21425;-51
2022/05/27 10:30:28;;;;;;;2.05;0.30;;;;;;;21.96;100.00;99167.30;1784263;78;21022;-53
2022/05/27 10:32:57;;;;;;;1.47;0.30;;;;;;;22.01;100.00;99170.47;1767368;80;21193;-52
2022/05/27 10:35:31;;;;;;;0.47;0.20;;;;;;;22.01;100.00;99169.10;1762276;80;21061;-53
2022/05/27 10:38:36;;;;;;;0.80;0.75;;;;;;;21.95;100.00;99160.95;1764176;79;21084;-51
2022/05/27 10:41:23;;;;;;;0.50;0.20;;;;;;;21.92;100.00;99159.06;1774790;79;21285;-53
2022/05/27 10:44:24;;;;;;;0.40;0.20;;;;;;;21.86;100.00;99153.19;1773839;79;21100;-53
2022/05/27 10:46:58;;;;;;;0.70;0.30;;;;;;;21.83;100.00;99154.04;1776263;79;21164;-53
2022/05/27 10:49:57;;;;;;;0.90;0.28;;;;;;;21.88;100.00;99153.03;1775063;79;29468;-50
2022/05/27 10:52:38;;;;;;;1.52;0.15;;;;;;;21.95;100.00;99153.28;1777858;78;21052;-53
2022/05/27 10:55:36;;;;;;;2.92;0.30;;;;;;;21.98;100.00;99143.38;1778638;79;21060;-54
2022/05/27 11:04:28;;;;;;;0.90;0.20;;;;;;;22.26;100.00;99136.72;1750894;80;21032;-50
2022/05/27 11:07:06;;;;;;;0.40;0.30;;;;;;;22.31;100.00;99127.48;1742343;80;20899;-51
2022/05/27 11:10:03;;;;;;;2.10;0.40;;;;;;;22.36;100.00;99115.53;1740271;80;20975;-53
2022/05/27 11:15:48;;;;;;;4.30;0.20;;;;;;;22.50;100.00;99122.27;1754693;80;21868;-54
2022/05/27 11:18:26;;;;;;;0.60;0.30;;;;;;;22.49;100.00;99118.66;1762159;79;21568;-54
2022/05/27 11:21:14;;;;;;;1.87;0.30;;;;;;;22.40;100.00;99116.04;1771272;79;21037;-54
2022/05/27 11:24:24;;;;;;;0.80;0.70;;;;;;;22.24;100.00;99118.19;1770261;79;21586;-51
2022/05/27 11:27:05;;;;;;;1.32;0.20;;;;;;;22.08;100.00;99119.47;1697034;80;21037;-54
2022/05/27 11:29:58;;;;;;;0.88;0.23;;;;;;;21.97;100.00;99108.74;1757554;79;21137;-52
2022/05/27 11:33:06;;;;;;;1.65;0.30;;;;;;;21.94;100.00;99108.58;1753640;81;21062;-51
2022/05/27 11:35:59;;;;;;;0.60;0.20;;;;;;;21.96;100.00;99109.25;1742640;80;21075;-53
2022/05/27 11:38:52;;;;;;;0.78;0.30;;;;;;;22.01;100.00;99093.74;1772017;79;21065;-51
2022/05/27 11:41:41;;;;;;;0.37;0.20;;;;;;;22.03;100.00;99087.05;1662182;84;21018;-54
2022/05/27 11:44:21;;;;;;;1.80;0.30;;;;;;;22.05;100.00;99082.28;1666504;84;21232;-53
2022/05/27 11:46:59;;;;;;;0.40;0.30;;;;;;;22.07;100.00;99082.12;1711649;80;20947;-52
2022/05/27 11:49:35;;;;;;;0.53;0.28;;;;;;;22.06;100.00;99085.88;1766365;79;20950;-52
2022/05/27 11:52:16;;;;;;;1.57;0.30;;;;;;;22.01;100.00;99078.16;1746188;79;20923;-55
2022/05/27 11:55:03;;;;;;;1.20;0.30;;;;;;;22.00;100.00;99074.21;1763853;79;20946;-54
2022/05/27 11:57:47;;;;;;;2.62;0.30;;;;;;;21.99;100.00;99078.83;1740622;79;21897;-52
2022/05/27 12:00:19;;;;;;;2.22;0.20;;;;;;;21.95;100.00;99076.55;1685050;80;20887;-54
2022/05/27 12:03:11;;;;;;;0.33;0.20;;;;;;;21.94;100.00;99069.36;1740070;81;21317;-54
2022/05/27 12:05:42;;;;;;;0.30;0.30;;;;;;;21.94;100.00;99072.95;1721048;81;21127;-53
2022/05/27 12:08:45;;;;;;;0.60;0.30;;;;;;;21.94;100.00;99070.22;1723806;81;20942;-54
2022/05/27 12:11:17;;;;;;;0.28;0.20;;;;;;;21.93;100.00;99067.63;1704104;82;21336;-55
2022/05/27 12:13:52;;;;;;;0.42;0.20;;;;;;;21.89;100.00;99058.36;1738042;81;20906;-54
2022/05/27 12:16:27;;;;;;;0.40;0.20;;;;;;;21.90;100.00;99055.11;1725359;81;21920;-53
2022/05/27 12:18:59;;;;;;;1.22;0.30;;;;;;;21.95;100.00;99052.73;1747057;80;20862;-52
2022/05/27 12:21:29;;;;;;;0.37;0.20;;;;;;;22.02;100.00;99045.63;1725728;81;20977;-54
2022/05/27 12:24:00;;;;;;;1.55;0.20;;;;;;;22.11;100.00;99043.80;1738674;80;21369;-54
2022/05/27 12:26:33;;;;;;;0.30;0.30;;;;;;;22.16;100.00;99038.66;1721799;81;21312;-54
2022/05/27 12:29:02;;;;;;;0.88;0.30;;;;;;;22.21;100.00;99024.80;1742355;80;21128;-54
2022/05/27 12:31:31;;;;;;;1.32;0.20;;;;;;;22.25;100.00;99022.59;1727341;81;21471;-54
2022/05/27 12:33:57;;;;;;;0.55;0.23;;;;;;;22.29;100.00;99008.89;1692422;82;21128;-51